Ocean Exporter — VRXJ4 — position and weather

sailwx.info

Track history (hours):
 
Tides and Currents Weather Stations Pressure Air Temp Water Temp Dewpoint Dewpoint Depression Visibility Wind Speed Wind Dir Waves Ship Positions

Ocean Exporter

Last reported at 2014-Dec-20 23:13 UTC. Time now 2014-Dec-21 12:07 UTC.
Position S 37°16' E 150°23'.

Length 169 m; draft 5.8 m.

Type: Cargo ship. MMSI: 477980000.

Date/timePositionNaut miles runAvg speedWind from/ knotsBaromVisibWave heightAir tempDewpointWater temp
2014-Dec-20 23:13S 37°16' E 150°23'6 8.2
2014-Dec-20 22:30S 37°22' E 150°21'12 9.7
2014-Dec-20 21:17S 37°32' E 150°14'810.3
2014-Dec-20 20:28S 37°40' E 150°10'910.1
2014-Dec-20 19:33S 37°46' E 150°01'1010.3
2014-Dec-20 18:33S 37°52' E 149°50'1010.4
2014-Dec-20 17:33S 37°58' E 149°39'2611.2
2014-Dec-20 15:17S 38°13' E 149°13'810.4
2014-Dec-20 14:32S 38°17' E 149°05'1010.6
2014-Dec-20 13:33S 38°24' E 148°55'3310.3
2014-Dec-20 10:17S 38°44' E 148°20'10 9.9
2014-Dec-20 09:19S 38°48' E 148°09'2110.2
2014-Dec-20 07:17S 38°55' E 147°44'2010.8
2014-Dec-20 05:25S 39°02' E 147°20'1011.3
2014-Dec-20 04:33S 39°05' E 147°08'1111.5
2014-Dec-20 03:33S 39°10' E 146°54'1111.4
2014-Dec-20 02:33S 39°14' E 146°41'1111.1
2014-Dec-20 01:33S 39°17' E 146°27'1111.1
2014-Dec-20 00:33S 39°17' E 146°13'1110.9
2014-Dec-19 23:33S 39°15' E 145°59'1110.9
2014-Dec-19 22:33S 39°13' E 145°45'4611.3
2014-Dec-19 18:31S 39°06' E 144°47'1111.3
2014-Dec-19 17:32S 39°04' E 144°33'1111.2
2014-Dec-19 16:32S 39°02' E 144°18'1110.8
2014-Dec-19 15:33S 39°01' E 144°05'1110.8
2014-Dec-19 14:33S 38°59' E 143°51'1110.6
2014-Dec-19 13:33S 38°57' E 143°38'1110.5
2014-Dec-19 12:31S 38°56' E 143°24'1110.9
2014-Dec-19 11:30S 38°54' E 143°10'1110.5
2014-Dec-19 10:29S 38°52' E 142°56'1110.9
2014-Dec-19 09:28S 38°50' E 142°42'1010.6
2014-Dec-19 08:33S 38°46' E 142°31'1110.9
2014-Dec-19 07:33S 38°40' E 142°19'1110.8
2014-Dec-19 06:33S 38°34' E 142°08'1110.8
2014-Dec-19 05:31S 38°28' E 141°56'1110.8
2014-Dec-19 04:32S 38°22' E 141°44'6 5.8
2014-Dec-19 03:32S 38°21' E 141°37'0 0.0
2014-Dec-19 02:32S 38°21' E 141°37'0 0.0
2014-Dec-19 01:30S 38°21' E 141°37'0 0.0
2014-Dec-19 00:32S 38°21' E 141°37'0 0.0
2014-Dec-18 23:29S 38°21' E 141°37'0 0.0
2014-Dec-18 22:29S 38°21' E 141°37'0 0.0
2014-Dec-18 21:32S 38°21' E 141°37'0 0.0
2014-Dec-18 20:29S 38°21' E 141°37'0 0.0
2014-Dec-18 19:32S 38°21' E 141°37'0 0.0
2014-Dec-18 18:23S 38°21' E 141°37'0 0.0
2014-Dec-18 17:23S 38°21' E 141°37'0 0.0
2014-Dec-18 16:27S 38°21' E 141°37'0 0.0
2014-Dec-18 15:32S 38°21' E 141°37'0 0.0
2014-Dec-18 14:32S 38°21' E 141°37'0 0.0
2014-Dec-18 13:11S 38°21' E 141°37'0 0.0
2014-Dec-18 12:17S 38°21' E 141°37'0 0.0
2014-Dec-18 11:24S 38°21' E 141°37'0 0.0
2014-Dec-18 10:08S 38°21' E 141°37'0 0.0
2014-Dec-18 09:17S 38°21' E 141°37'0 0.0
2014-Dec-18 08:29S 38°21' E 141°37'0 0.0
2014-Dec-18 07:29S 38°21' E 141°37'0 0.0
2014-Dec-18 06:11S 38°21' E 141°37'0 0.0
2014-Dec-18 05:29S 38°21' E 141°37'0 0.0
2014-Dec-18 04:32S 38°21' E 141°37'0 0.0
2014-Dec-18 03:33S 38°21' E 141°37'  
2014-Dec-14 13:33S 38°19' E 141°40'0 0.0
2014-Dec-14 12:27S 38°19' E 141°40'0 0.1
2014-Dec-14 11:33S 38°19' E 141°40'4 3.7
2014-Dec-14 10:32S 38°21' E 141°44'1010.2
2014-Dec-14 09:34S 38°27' E 141°54'1311.3
2014-Dec-14 08:26S 38°34' E 142°08'1011.4
2014-Dec-14 07:33S 38°40' E 142°18'1111.3
2014-Dec-14 06:33S 38°46' E 142°30'9 8.8
2014-Dec-14 05:33S 38°51' E 142°40'1111.3
2014-Dec-14 04:33S 38°55' E 142°53'1711.5
2014-Dec-14 03:04S 39°02' E 143°13'711.2
2014-Dec-14 02:28S 39°05' E 143°21'1111.3
2014-Dec-14 01:31S 39°05' E 143°35'1210.7
2014-Dec-14 00:26S 39°03' E 143°50'1111.1
2014-Dec-13 23:29S 38°56' E 144°01'1111.0
2014-Dec-13 22:31S 38°51' E 144°13'4 1.7
2014-Dec-13 20:17S 38°48' E 144°14'1 0.4
2014-Dec-13 17:15S 38°46' E 144°14'1 1.4
2014-Dec-13 16:23S 38°47' E 144°15'4 0.6
2014-Dec-13 10:28S 38°43' E 144°16'62 3.9
2014-Dec-12 18:20S 37°49' E 144°54'  
Track history (hours):
 
Tides and Currents Weather Stations Pressure Air Temp Water Temp Dewpoint Dewpoint Depression Visibility Wind Speed Wind Dir Waves Ship Positions

Ocean Exporter

Last reported at 2014-Dec-20 23:13 UTC. Time now 2014-Dec-21 12:07 UTC.
Position S 37°16' E 150°23'.

Length 169 m; draft 5.8 m.

Type: Cargo ship. MMSI: 477980000.

Date/timePositionNaut miles runAvg speedWind from/ knotsBaromVisibWave heightAir tempDewpointWater temp
2014-Dec-20 23:13S 37°16' E 150°23'6 8.2
2014-Dec-20 22:30S 37°22' E 150°21'12 9.7
2014-Dec-20 21:17S 37°32' E 150°14'810.3
2014-Dec-20 20:28S 37°40' E 150°10'910.1
2014-Dec-20 19:33S 37°46' E 150°01'1010.3
2014-Dec-20 18:33S 37°52' E 149°50'1010.4
2014-Dec-20 17:33S 37°58' E 149°39'2611.2
2014-Dec-20 15:17S 38°13' E 149°13'810.4
2014-Dec-20 14:32S 38°17' E 149°05'1010.6
2014-Dec-20 13:33S 38°24' E 148°55'3310.3
2014-Dec-20 10:17S 38°44' E 148°20'10 9.9
2014-Dec-20 09:19S 38°48' E 148°09'2110.2
2014-Dec-20 07:17S 38°55' E 147°44'2010.8
2014-Dec-20 05:25S 39°02' E 147°20'1011.3
2014-Dec-20 04:33S 39°05' E 147°08'1111.5
2014-Dec-20 03:33S 39°10' E 146°54'1111.4
2014-Dec-20 02:33S 39°14' E 146°41'1111.1
2014-Dec-20 01:33S 39°17' E 146°27'1111.1
2014-Dec-20 00:33S 39°17' E 146°13'1110.9
2014-Dec-19 23:33S 39°15' E 145°59'1110.9
2014-Dec-19 22:33S 39°13' E 145°45'4611.3
2014-Dec-19 18:31S 39°06' E 144°47'1111.3
2014-Dec-19 17:32S 39°04' E 144°33'1111.2
2014-Dec-19 16:32S 39°02' E 144°18'1110.8
2014-Dec-19 15:33S 39°01' E 144°05'1110.8
2014-Dec-19 14:33S 38°59' E 143°51'1110.6
2014-Dec-19 13:33S 38°57' E 143°38'1110.5
2014-Dec-19 12:31S 38°56' E 143°24'1110.9
2014-Dec-19 11:30S 38°54' E 143°10'1110.5
2014-Dec-19 10:29S 38°52' E 142°56'1110.9
2014-Dec-19 09:28S 38°50' E 142°42'1010.6
2014-Dec-19 08:33S 38°46' E 142°31'1110.9
2014-Dec-19 07:33S 38°40' E 142°19'1110.8
2014-Dec-19 06:33S 38°34' E 142°08'1110.8
2014-Dec-19 05:31S 38°28' E 141°56'1110.8
2014-Dec-19 04:32S 38°22' E 141°44'6 5.8
2014-Dec-19 03:32S 38°21' E 141°37'0 0.0
2014-Dec-19 02:32S 38°21' E 141°37'0 0.0
2014-Dec-19 01:30S 38°21' E 141°37'0 0.0
2014-Dec-19 00:32S 38°21' E 141°37'0 0.0
2014-Dec-18 23:29S 38°21' E 141°37'0 0.0
2014-Dec-18 22:29S 38°21' E 141°37'0 0.0
2014-Dec-18 21:32S 38°21' E 141°37'0 0.0
2014-Dec-18 20:29S 38°21' E 141°37'0 0.0
2014-Dec-18 19:32S 38°21' E 141°37'0 0.0
2014-Dec-18 18:23S 38°21' E 141°37'0 0.0
2014-Dec-18 17:23S 38°21' E 141°37'0 0.0
2014-Dec-18 16:27S 38°21' E 141°37'0 0.0
2014-Dec-18 15:32S 38°21' E 141°37'0 0.0
2014-Dec-18 14:32S 38°21' E 141°37'0 0.0
2014-Dec-18 13:11S 38°21' E 141°37'0 0.0
2014-Dec-18 12:17S 38°21' E 141°37'0 0.0
2014-Dec-18 11:24S 38°21' E 141°37'0 0.0
2014-Dec-18 10:08S 38°21' E 141°37'0 0.0
2014-Dec-18 09:17S 38°21' E 141°37'0 0.0
2014-Dec-18 08:29S 38°21' E 141°37'0 0.0
2014-Dec-18 07:29S 38°21' E 141°37'0 0.0
2014-Dec-18 06:11S 38°21' E 141°37'0 0.0
2014-Dec-18 05:29S 38°21' E 141°37'0 0.0
2014-Dec-18 04:32S 38°21' E 141°37'0 0.0
2014-Dec-18 03:33S 38°21' E 141°37'  
2014-Dec-14 13:33S 38°19' E 141°40'0 0.0
2014-Dec-14 12:27S 38°19' E 141°40'0 0.1
2014-Dec-14 11:33S 38°19' E 141°40'4 3.7
2014-Dec-14 10:32S 38°21' E 141°44'1010.2
2014-Dec-14 09:34S 38°27' E 141°54'1311.3
2014-Dec-14 08:26S 38°34' E 142°08'1011.4
2014-Dec-14 07:33S 38°40' E 142°18'1111.3
2014-Dec-14 06:33S 38°46' E 142°30'9 8.8
2014-Dec-14 05:33S 38°51' E 142°40'1111.3
2014-Dec-14 04:33S 38°55' E 142°53'1711.5
2014-Dec-14 03:04S 39°02' E 143°13'711.2
2014-Dec-14 02:28S 39°05' E 143°21'1111.3
2014-Dec-14 01:31S 39°05' E 143°35'1210.7
2014-Dec-14 00:26S 39°03' E 143°50'1111.1
2014-Dec-13 23:29S 38°56' E 144°01'1111.0
2014-Dec-13 22:31S 38°51' E 144°13'4 1.7
2014-Dec-13 20:17S 38°48' E 144°14'1 0.4
2014-Dec-13 17:15S 38°46' E 144°14'1 1.4
2014-Dec-13 16:23S 38°47' E 144°15'4 0.6
2014-Dec-13 10:28S 38°43' E 144°16'62 3.9
2014-Dec-12 18:20S 37°49' E 144°54'  

Dump ship's entire track history